Time;durP1;ratioP1;P1;durP2;ratioP2;P2;SDS_P1;SDS_P2;PMS_P1;PMS_P2;Temp;Humidity;BMP_temperature;BMP_pressure;BME280_temperature;BME280_humidity;BME280_pressure;Samples;Min_cycle;Max_cycle;Signal;HPM_P1;HPM_P2
2024/03/12 00:01:44;;;;;;;26.23;12.63;;;;;;;5.15;56.95;100891.75;5031216;28;20048;-71
2024/03/12 00:04:11;;;;;;;33.95;13.13;;;;;;;5.17;57.12;100878.78;5030579;28;20039;-70
2024/03/12 00:06:37;;;;;;;23.88;12.93;;;;;;;5.23;56.87;100882.13;5024699;28;20036;-70
2024/03/12 00:09:06;;;;;;;28.83;13.73;;;;;;;5.30;56.71;100889.75;5032441;28;20045;-70
2024/03/12 00:11:33;;;;;;;23.33;12.73;;;;;;;5.29;56.56;100894.09;5027794;28;20183;-70
2024/03/12 00:13:58;;;;;;;27.45;13.60;;;;;;;5.26;56.31;100896.75;5031943;28;20068;-71
2024/03/12 00:16:24;;;;;;;23.05;12.88;;;;;;;5.21;56.44;100896.84;5026786;28;20498;-71
2024/03/12 00:18:53;;;;;;;21.75;11.93;;;;;;;5.25;56.41;100898.47;5031421;28;20128;-70
2024/03/12 00:21:20;;;;;;;29.92;12.43;;;;;;;5.26;56.38;100894.16;5025486;28;20033;-71
2024/03/12 00:23:47;;;;;;;26.35;12.25;;;;;;;5.19;56.41;100898.59;5031704;28;20099;-70
2024/03/12 00:26:17;;;;;;;20.02;11.75;;;;;;;5.28;56.17;100901.88;5032919;28;20033;-67
2024/03/12 00:28:44;;;;;;;28.90;12.55;;;;;;;5.31;56.55;100901.84;5030420;28;20517;-67
2024/03/12 00:31:09;;;;;;;20.17;11.20;;;;;;;5.29;56.06;100903.63;5030781;28;20680;-67
2024/03/12 00:33:35;;;;;;;22.83;12.68;;;;;;;5.30;56.12;100901.00;5025878;28;20135;-67
2024/03/12 00:36:01;;;;;;;19.20;11.50;;;;;;;5.32;56.42;100898.38;5031384;28;20070;-67
2024/03/12 00:38:29;;;;;;;23.60;11.18;;;;;;;5.31;56.14;100901.84;5026897;28;20047;-68
2024/03/12 00:40:55;;;;;;;17.77;9.82;;;;;;;5.40;56.12;100901.69;5020896;28;20048;-68
2024/03/12 00:43:21;;;;;;;21.45;10.63;;;;;;;5.40;55.96;100901.69;5032946;28;20116;-68
2024/03/12 00:45:48;;;;;;;19.45;10.05;;;;;;;5.34;55.86;100905.22;5033197;28;21606;-69
2024/03/12 00:48:15;;;;;;;21.17;10.13;;;;;;;5.35;56.07;100903.50;5035687;28;20049;-68
2024/03/12 00:50:46;;;;;;;18.45;9.32;;;;;;;5.35;55.74;100904.38;5029761;28;20025;-69
2024/03/12 00:53:13;;;;;;;15.85;9.80;;;;;;;5.33;55.96;100903.53;5037404;28;20055;-69
2024/03/12 00:55:40;;;;;;;15.20;9.32;;;;;;;5.30;55.61;100907.91;5028504;28;21911;-69
2024/03/12 00:58:07;;;;;;;16.08;9.77;;;;;;;5.31;55.53;100907.03;5018594;28;20112;-68
2024/03/12 01:00:36;;;;;;;15.05;8.85;;;;;;;5.36;55.88;100915.56;5028985;28;20041;-69
2024/03/12 01:03:05;;;;;;;16.23;9.35;;;;;;;5.38;55.49;100913.81;5033610;28;20040;-68
2024/03/12 01:05:31;;;;;;;24.48;10.68;;;;;;;5.38;55.66;100913.81;5030883;28;20048;-69
2024/03/12 01:08:00;;;;;;;16.90;9.57;;;;;;;5.36;55.35;100923.34;5032733;28;20068;-69
2024/03/12 01:10:30;;;;;;;16.13;8.32;;;;;;;5.34;55.55;100917.34;5020623;28;20033;-68
2024/03/12 01:13:00;;;;;;;14.90;8.43;;;;;;;5.29;55.72;100925.19;5035107;28;20083;-69
2024/03/12 01:15:26;;;;;;;14.20;8.45;;;;;;;5.32;55.48;100919.09;5032450;28;20120;-68
2024/03/12 01:17:53;;;;;;;15.98;7.47;;;;;;;5.37;55.46;100917.28;5030502;28;20033;-70
2024/03/12 01:20:20;;;;;;;12.88;7.22;;;;;;;5.34;55.69;100917.34;5034957;28;20487;-71
2024/03/12 01:22:47;;;;;;;15.77;8.27;;;;;;;5.35;55.08;100919.06;5020756;28;20064;-69
2024/03/12 01:25:12;;;;;;;14.15;8.50;;;;;;;5.37;55.15;100918.16;5035123;28;20082;-69
2024/03/12 01:27:39;;;;;;;11.32;7.60;;;;;;;5.33;55.28;100920.81;5026435;28;20426;-69
2024/03/12 01:30:26;;;;;;;10.95;7.22;;;;;;;5.31;55.38;100925.19;5037159;28;20037;-68
2024/03/12 01:32:52;;;;;;;8.40;5.47;;;;;;;5.35;55.11;100919.06;5030164;28;20075;-69
2024/03/12 01:35:20;;;;;;;9.82;6.03;;;;;;;5.33;55.08;100926.00;5034454;28;20426;-69
2024/03/12 01:37:49;;;;;;;11.10;6.10;;;;;;;5.32;55.10;100922.53;5027307;28;20491;-69
2024/03/12 01:40:22;;;;;;;10.55;7.10;;;;;;;5.34;55.13;100930.28;5035090;28;20033;-69
2024/03/12 01:42:52;;;;;;;12.93;7.45;;;;;;;5.28;55.25;100922.63;5026357;28;20040;-69
2024/03/12 01:45:24;;;;;;;12.30;7.07;;;;;;;5.34;55.33;100920.78;5035683;28;20043;-69
2024/03/12 01:47:55;;;;;;;9.23;6.20;;;;;;;5.28;55.27;100927.81;5028142;28;20490;-68
2024/03/12 01:50:22;;;;;;;12.48;6.80;;;;;;;5.29;55.10;100926.94;5033362;28;20116;-68
2024/03/12 01:52:50;;;;;;;13.35;7.28;;;;;;;5.29;55.19;100925.19;5026999;28;20044;-68
2024/03/12 01:55:18;;;;;;;9.40;5.82;;;;;;;5.30;55.03;100918.25;5033312;28;20032;-69
2024/03/12 01:57:47;;;;;;;11.10;6.22;;;;;;;5.33;54.95;100926.00;5026447;28;20556;-69
2024/03/12 02:00:14;;;;;;;10.98;6.95;;;;;;;5.29;55.20;100921.75;5032389;28;20033;-69
2024/03/12 02:02:52;;;;;;;12.35;6.97;;;;;;;5.22;55.33;100924.44;5025184;28;20041;-68
2024/03/12 02:05:18;;;;;;;10.65;7.03;;;;;;;5.24;55.45;100933.06;5041374;28;20082;-71
2024/03/12 02:07:50;;;;;;;14.13;8.10;;;;;;;5.31;55.13;100928.63;5025231;28;20504;-71
2024/03/12 02:10:16;;;;;;;;;;;;;;;5.29;55.24;100925.19;5034582;28;20524;-71
2024/03/12 02:12:45;;;;;;;11.05;6.75;;;;;;;5.29;55.01;100929.53;5024543;28;19925;-71
2024/03/12 02:15:12;;;;;;;12.38;7.25;;;;;;;5.30;55.08;100931.22;5035345;28;20036;-71
2024/03/12 02:17:39;;;;;;;10.60;7.00;;;;;;;5.32;54.94;100932.91;5025356;28;20059;-71
2024/03/12 02:20:08;;;;;;;12.38;7.18;;;;;;;5.28;54.99;100939.06;5034790;28;20172;-70
2024/03/12 02:22:35;;;;;;;12.05;6.35;;;;;;;5.20;54.95;100941.75;5019531;28;20045;-71
2024/03/12 02:25:10;;;;;;;10.90;6.63;;;;;;;5.11;55.41;100936.72;5033595;28;20025;-70
2024/03/12 02:27:37;;;;;;;13.18;7.53;;;;;;;5.03;55.64;100943.75;5023985;28;20044;-73
2024/03/12 02:30:04;;;;;;;12.82;7.75;;;;;;;5.13;55.42;100939.31;5035031;28;20162;-73
2024/03/12 02:32:29;;;;;;;11.52;6.90;;;;;;;5.07;55.65;100945.41;5031446;28;20123;-71
2024/03/12 02:34:55;;;;;;;16.83;7.55;;;;;;;5.07;55.84;100934.22;5027432;28;20040;-71
2024/03/12 02:37:23;;;;;;;14.65;7.80;;;;;;;5.01;55.84;100942.91;5023999;28;255099;-70
2024/03/12 02:39:49;;;;;;;12.20;7.43;;;;;;;5.06;55.80;100938.53;5025308;28;20032;-72
2024/03/12 02:42:15;;;;;;;14.70;8.10;;;;;;;5.03;55.80;100944.63;5035160;28;20040;-68
2024/03/12 02:44:40;;;;;;;11.98;7.53;;;;;;;5.03;55.93;100943.75;5027673;28;20037;-70
2024/03/12 02:47:06;;;;;;;12.38;8.13;;;;;;;4.98;55.94;100942.97;5033943;28;20033;-70
2024/03/12 02:49:31;;;;;;;10.32;7.38;;;;;;;4.95;56.36;100946.47;5026920;28;20041;-71
2024/03/12 02:52:00;;;;;;;12.35;7.40;;;;;;;5.00;55.81;100941.22;5039601;28;20046;-70
2024/03/12 02:54:25;;;;;;;12.27;7.57;;;;;;;5.00;56.06;100939.47;5048814;28;20037;-70
2024/03/12 02:56:53;;;;;;;12.95;8.43;;;;;;;5.07;55.95;100944.56;5029545;28;20055;-70
2024/03/12 02:59:19;;;;;;;13.13;7.40;;;;;;;5.06;55.84;100948.91;5033550;28;20072;-68
2024/03/12 03:01:44;;;;;;;12.48;6.75;;;;;;;5.03;55.94;100943.75;5028485;28;20047;-68
2024/03/12 03:04:10;;;;;;;13.25;7.60;;;;;;;5.02;55.82;100944.66;5033547;28;20075;-67
2024/03/12 03:06:36;;;;;;;13.98;8.15;;;;;;;5.01;55.99;100945.50;5027421;28;20481;-70
2024/03/12 03:09:05;;;;;;;15.60;8.63;;;;;;;4.99;55.82;100948.16;5033258;28;20052;-72
2024/03/12 03:11:33;;;;;;;11.20;7.05;;;;;;;4.98;56.01;100950.75;5032129;28;20037;-70
2024/03/12 03:14:00;;;;;;;11.63;7.35;;;;;;;4.96;56.23;100948.16;5029153;28;20040;-72
2024/03/12 03:16:27;;;;;;;12.82;7.07;;;;;;;4.98;56.24;100945.56;5033196;28;20044;-70
2024/03/12 03:18:54;;;;;;;15.68;9.15;;;;;;;4.96;56.04;100943.00;5037145;28;20183;-71
2024/03/12 03:21:19;;;;;;;14.85;8.45;;;;;;;4.96;56.20;100942.13;5035969;28;20081;-70
2024/03/12 03:23:45;;;;;;;12.40;7.78;;;;;;;4.96;56.08;100939.56;5028762;28;20032;-73
2024/03/12 03:26:11;;;;;;;13.45;7.75;;;;;;;4.97;55.99;100943.88;5016174;28;20048;-71
2024/03/12 03:28:37;;;;;;;13.45;8.15;;;;;;;4.90;56.29;100947.41;5029068;28;21086;-74
2024/03/12 03:31:04;;;;;;;14.60;7.43;;;;;;;4.91;56.22;100941.38;5035518;28;20765;-73
2024/03/12 03:33:29;;;;;;;14.10;7.70;;;;;;;4.91;56.45;100946.53;5039411;28;20686;-76
2024/03/12 03:35:54;;;;;;;15.20;8.98;;;;;;;4.95;56.38;100949.06;5030440;28;20036;-74
2024/03/12 03:38:20;;;;;;;14.32;8.90;;;;;;;4.93;56.21;100949.97;5033150;28;20033;-74
2024/03/12 03:40:46;;;;;;;15.95;8.40;;;;;;;4.84;56.45;100944.00;5028080;28;20406;-73
2024/03/12 03:43:12;;;;;;;15.38;8.88;;;;;;;4.79;56.53;100944.97;5031500;28;20048;-74
2024/03/12 03:45:38;;;;;;;15.32;8.55;;;;;;;4.77;56.80;100942.41;5031881;28;20036;-74
2024/03/12 03:48:04;;;;;;;15.02;8.75;;;;;;;4.81;56.48;100940.59;5026572;28;20763;-73
2024/03/12 03:50:29;;;;;;;14.55;8.18;;;;;;;4.80;56.63;100942.34;5037401;28;20028;-74
2024/03/12 03:52:55;;;;;;;16.52;8.85;;;;;;;4.77;56.44;100951.91;5009962;28;20045;-74
2024/03/12 03:55:23;;;;;;;17.38;9.20;;;;;;;4.78;56.51;100948.41;5033313;28;20024;-74
2024/03/12 03:57:49;;;;;;;17.33;9.40;;;;;;;4.75;56.54;100946.75;5008891;28;20056;-73
2024/03/12 04:00:17;;;;;;;13.80;7.70;;;;;;;4.78;56.34;100948.41;5032374;28;20025;-73
2024/03/12 04:02:44;;;;;;;14.70;9.15;;;;;;;4.78;56.40;100951.00;5028045;28;20422;-75
2024/03/12 04:05:13;;;;;;;17.13;8.90;;;;;;;4.75;56.46;100958.84;5030591;28;20116;-71
2024/03/12 04:07:40;;;;;;;15.55;9.23;;;;;;;4.75;56.95;100964.88;5027950;28;20047;-71
2024/03/12 04:10:10;;;;;;;15.13;8.02;;;;;;;4.80;56.94;100964.78;5032538;28;20029;-70
2024/03/12 04:12:39;;;;;;;13.73;8.18;;;;;;;4.91;56.60;100965.53;5028812;28;20052;-71
2024/03/12 04:15:06;;;;;;;14.90;9.13;;;;;;;4.97;56.50;100967.19;5028309;28;20025;-70
2024/03/12 04:17:31;;;;;;;15.15;8.98;;;;;;;5.01;56.44;100981.78;5031793;28;20064;-71
2024/03/12 04:19:57;;;;;;;15.75;8.40;;;;;;;5.06;56.45;100982.59;5032502;28;20067;-69
2024/03/12 04:22:22;;;;;;;16.55;9.32;;;;;;;5.09;56.23;100990.28;5033615;28;20067;-71
2024/03/12 04:24:48;;;;;;;21.27;11.00;;;;;;;5.06;56.47;100982.59;5024484;28;20154;-71
2024/03/12 04:27:14;;;;;;;19.60;10.73;;;;;;;4.95;56.65;100987.06;5029665;28;20051;-69
2024/03/12 04:29:43;;;;;;;20.23;10.48;;;;;;;4.93;56.69;100983.63;5028242;28;20111;-72
2024/03/12 04:32:09;;;;;;;16.83;9.50;;;;;;;4.87;56.80;100987.13;5031348;28;20025;-70
2024/03/12 04:34:38;;;;;;;18.15;10.82;;;;;;;4.74;57.26;100994.22;5033897;28;20821;-70
2024/03/12 04:37:04;;;;;;;21.63;11.40;;;;;;;4.74;57.42;100994.22;5027358;28;20106;-69
2024/03/12 04:39:30;;;;;;;23.17;11.45;;;;;;;4.81;57.46;100995.88;5032168;28;20064;-69
2024/03/12 04:42:01;;;;;;;23.85;12.13;;;;;;;4.93;57.38;100999.19;5025946;28;20127;-69
2024/03/12 04:44:27;;;;;;;23.33;12.35;;;;;;;4.91;57.22;101006.13;5034513;28;20029;-69
2024/03/12 04:46:53;;;;;;;19.98;11.48;;;;;;;5.01;57.28;101007.69;5014638;28;21492;-69
2024/03/12 04:49:19;;;;;;;22.27;12.30;;;;;;;5.12;57.17;101015.28;5030879;28;20063;-72
2024/03/12 04:51:45;;;;;;;22.88;11.80;;;;;;;4.94;57.27;101016.41;5030801;28;20044;-72
2024/03/12 04:54:11;;;;;;;23.88;11.55;;;;;;;5.01;57.25;101007.69;5016266;28;20645;-71
2024/03/12 04:56:36;;;;;;;24.83;13.02;;;;;;;5.12;56.89;101010.13;5012667;28;20033;-71
2024/03/12 04:59:02;;;;;;;22.38;12.13;;;;;;;5.12;56.85;101016.16;5026069;28;20123;-71
2024/03/12 05:01:27;;;;;;;22.48;11.93;;;;;;;5.02;57.12;101018.03;5032490;28;20040;-71
2024/03/12 05:03:53;;;;;;;22.70;13.88;;;;;;;5.01;57.43;101018.03;5023117;28;20055;-71
2024/03/12 05:06:21;;;;;;;23.23;12.70;;;;;;;5.03;57.12;101022.34;5031322;28;20037;-71
2024/03/12 05:08:47;;;;;;;20.50;12.75;;;;;;;5.00;57.27;101026.72;5030682;28;20503;-71
2024/03/12 05:11:15;;;;;;;26.05;13.50;;;;;;;4.96;57.78;101025.03;5030814;28;20047;-71
2024/03/12 05:13:41;;;;;;;25.33;14.02;;;;;;;5.02;57.73;101035.31;5028936;28;20049;-71
2024/03/12 05:16:07;;;;;;;25.33;12.48;;;;;;;4.98;57.61;101033.63;5024815;28;20120;-71
2024/03/12 05:18:32;;;;;;;25.48;13.82;;;;;;;5.10;57.51;101036.06;5032369;28;20102;-71
2024/03/12 05:20:58;;;;;;;26.33;12.70;;;;;;;5.24;57.18;101039.31;5024051;28;20024;-71
2024/03/12 05:23:23;;;;;;;24.52;13.02;;;;;;;5.12;57.72;101039.47;5031265;28;20041;-71
2024/03/12 05:25:51;;;;;;;25.85;13.32;;;;;;;5.28;57.25;101053.09;5024984;28;20429;-71
2024/03/12 05:28:19;;;;;;;27.40;14.50;;;;;;;5.16;57.39;101054.09;5032058;28;20041;-70
2024/03/12 05:30:45;;;;;;;27.35;14.85;;;;;;;4.77;58.26;101060.66;5031603;28;20040;-70
2024/03/12 05:33:15;;;;;;;28.73;15.20;;;;;;;5.12;57.64;101055.00;5028373;28;20443;-70
2024/03/12 05:35:51;;;;;;;30.50;15.38;;;;;;;5.05;58.01;101071.53;5036008;28;20038;-70
2024/03/12 05:38:33;;;;;;;30.42;14.20;;;;;;;5.16;57.89;101059.28;5030258;28;20047;-70
2024/03/12 05:49:14;;;;;;;26.77;15.70;;;;;;;5.30;57.56;101073.78;5028716;28;20044;-69
2024/03/12 05:51:39;;;;;;;34.42;16.90;;;;;;;5.29;57.71;101072.91;5031124;28;20044;-74
2024/03/12 05:54:05;;;;;;;31.40;16.73;;;;;;;5.03;58.30;101075.88;5036875;28;20032;-72
2024/03/12 05:56:31;;;;;;;35.80;17.17;;;;;;;4.75;59.28;101072.78;5035372;28;20036;-73
2024/03/12 05:58:56;;;;;;;31.55;17.33;;;;;;;4.99;58.37;101071.63;5024223;28;20468;-72
2024/03/12 06:01:23;;;;;;;32.03;16.98;;;;;;;4.86;59.20;101077.81;5035256;28;20033;-72
2024/03/12 06:03:50;;;;;;;38.30;19.00;;;;;;;4.70;59.27;101079.72;5036972;28;20043;-73
2024/03/12 06:06:17;;;;;;;35.05;18.08;;;;;;;4.91;58.69;101087.25;5019108;28;20037;-72
2024/03/12 06:08:44;;;;;;;33.90;17.60;;;;;;;5.12;58.04;101080.91;5031288;28;20045;-73
2024/03/12 06:11:12;;;;;;;32.17;18.08;;;;;;;4.97;58.43;101088.94;5032575;28;20980;-73
2024/03/12 06:13:38;;;;;;;42.53;18.48;;;;;;;5.22;57.92;101092.88;5034768;28;20490;-73
2024/03/12 06:16:07;;;;;;;33.22;17.42;;;;;;;5.16;57.93;101095.56;5029685;28;20036;-73
2024/03/12 06:18:33;;;;;;;35.72;17.95;;;;;;;5.08;58.04;101094.81;5034156;28;20040;-74
2024/03/12 06:20:59;;;;;;;35.63;18.85;;;;;;;5.18;57.94;101096.38;5028044;28;20108;-71
2024/03/12 06:23:25;;;;;;;34.58;17.98;;;;;;;4.77;58.67;101108.13;5033522;28;20136;-72
2024/03/12 06:25:52;;;;;;;39.00;18.63;;;;;;;5.18;57.86;101098.97;5031925;28;20579;-72
2024/03/12 06:28:21;;;;;;;36.90;18.45;;;;;;;5.33;57.67;101102.25;5015115;28;20033;-72
2024/03/12 06:30:49;;;;;;;35.15;17.92;;;;;;;5.30;57.47;101107.47;5032859;28;20723;-71
2024/03/12 06:33:18;;;;;;;38.10;18.17;;;;;;;5.12;57.55;101109.44;5027956;28;20109;-72
2024/03/12 06:35:47;;;;;;;40.38;19.95;;;;;;;5.05;57.94;101112.97;5030310;28;20044;-73
2024/03/12 06:38:15;;;;;;;33.63;16.85;;;;;;;5.49;57.04;101113.25;5034779;28;20787;-71
2024/03/12 06:40:41;;;;;;;37.53;19.02;;;;;;;5.50;56.91;101120.97;5033960;28;20028;-71
2024/03/12 06:43:13;;;;;;;35.90;17.83;;;;;;;5.74;56.68;101118.91;5027099;28;20635;-74
2024/03/12 06:45:40;;;;;;;33.38;17.80;;;;;;;6.38;55.33;101117.84;5031299;28;20886;-72
2024/03/12 06:48:06;;;;;;;32.42;18.25;;;;;;;6.41;54.54;101120.38;5023287;28;20675;-73
2024/03/12 06:50:32;;;;;;;38.22;18.73;;;;;;;6.05;54.83;101114.91;5034656;28;20090;-75
2024/03/12 06:52:57;;;;;;;33.13;17.85;;;;;;;5.98;54.12;101118.50;5024994;28;20032;-70
2024/03/12 06:55:26;;;;;;;33.72;17.40;;;;;;;5.95;54.32;101118.56;5033246;28;20820;-72
2024/03/12 06:57:59;;;;;;;32.40;17.35;;;;;;;5.96;54.52;101120.28;5030792;28;20032;-76
2024/03/12 07:00:39;;;;;;;33.92;17.98;;;;;;;5.84;54.88;101125.69;5032938;28;20429;-68
2024/03/12 07:03:10;;;;;;;35.90;16.52;;;;;;;5.84;54.44;101126.53;5024572;28;20048;-70
2024/03/12 07:05:37;;;;;;;33.40;17.02;;;;;;;5.91;54.48;101131.63;5037847;28;20046;-70
2024/03/12 07:08:06;;;;;;;32.05;17.25;;;;;;;5.98;54.59;101134.06;5024554;28;20136;-71
2024/03/12 07:10:32;;;;;;;37.10;18.52;;;;;;;6.04;54.47;101133.97;5032172;28;20032;-73
2024/03/12 07:13:00;;;;;;;31.58;18.10;;;;;;;5.97;54.52;101140.16;5027366;28;20048;-73
2024/03/12 07:15:29;;;;;;;32.85;16.77;;;;;;;5.56;55.27;101135.59;5037540;28;20029;-73
2024/03/12 07:17:58;;;;;;;28.92;17.13;;;;;;;5.84;55.29;101134.31;5015379;28;20123;-74
2024/03/12 07:20:23;;;;;;;40.40;19.90;;;;;;;5.59;55.30;101141.63;5044468;28;20032;-71
2024/03/12 07:22:49;;;;;;;32.40;17.08;;;;;;;5.96;54.83;101140.19;5026620;28;20041;-70
2024/03/12 07:25:16;;;;;;;33.13;16.70;;;;;;;6.05;54.28;101140.88;5025723;28;20040;-71
2024/03/12 07:27:42;;;;;;;33.03;17.33;;;;;;;6.19;54.39;101151.00;5038212;28;20047;-74
2024/03/12 07:30:12;;;;;;;32.58;16.67;;;;;;;6.33;53.83;101150.81;5023999;28;20033;-74
2024/03/12 07:32:42;;;;;;;31.23;16.95;;;;;;;6.46;53.61;101154.91;5034006;28;21021;-73
2024/03/12 07:35:08;;;;;;;33.05;16.95;;;;;;;6.45;53.35;101150.59;5020459;28;20462;-74
2024/03/12 07:37:39;;;;;;;33.88;17.13;;;;;;;6.54;53.24;101156.50;5032788;28;20043;-73
2024/03/12 07:40:06;;;;;;;35.67;17.05;;;;;;;6.55;53.40;101153.88;5013800;28;20032;-74
2024/03/12 07:42:32;;;;;;;33.85;16.75;;;;;;;6.39;53.45;101157.63;5033189;28;20501;-75
2024/03/12 07:44:58;;;;;;;36.05;18.02;;;;;;;6.61;53.31;101165.88;5027131;28;20047;-74
2024/03/12 07:47:24;;;;;;;30.20;16.35;;;;;;;6.73;52.83;101164.78;5029690;28;20532;-75
2024/03/12 07:49:53;;;;;;;32.65;17.55;;;;;;;6.65;52.43;101163.19;5031078;28;20028;-75
2024/03/12 07:52:19;;;;;;;33.95;18.50;;;;;;;6.08;54.03;101159.00;5040648;28;20044;-74
2024/03/12 07:54:45;;;;;;;37.08;17.20;;;;;;;6.36;53.91;101163.75;5039742;28;20043;-76
2024/03/12 07:57:13;;;;;;;36.20;18.63;;;;;;;6.17;53.96;101164.91;5023932;28;20670;-75
2024/03/12 07:59:43;;;;;;;31.40;18.30;;;;;;;6.47;53.28;101168.75;5034578;28;20059;-75
2024/03/12 08:02:11;;;;;;;35.67;19.55;;;;;;;6.45;53.20;101168.75;5022587;28;20698;-72
2024/03/12 08:04:42;;;;;;;34.88;17.23;;;;;;;6.47;52.90;101173.94;5034213;28;20115;-73
2024/03/12 08:07:13;;;;;;;28.83;16.98;;;;;;;6.43;53.39;101174.88;5013586;28;21488;-74
2024/03/12 08:09:46;;;;;;;32.55;18.85;;;;;;;6.24;53.53;101176.91;5033964;28;20082;-75
2024/03/12 08:12:13;;;;;;;32.25;17.65;;;;;;;6.47;53.16;101181.72;5024994;28;20431;-76
2024/03/12 08:14:41;;;;;;;39.05;18.98;;;;;;;6.56;52.91;101172.91;5034757;28;20029;-74
2024/03/12 08:17:13;;;;;;;34.53;17.52;;;;;;;6.67;52.93;101181.38;5023986;28;20103;-74
2024/03/12 08:19:40;;;;;;;32.85;17.58;;;;;;;6.43;52.88;101180.91;5036118;28;20021;-75
2024/03/12 08:22:05;;;;;;;35.85;18.60;;;;;;;6.63;53.17;101182.31;5022165;28;20041;-73
2024/03/12 08:24:31;;;;;;;32.65;17.60;;;;;;;6.67;52.78;101179.63;5031379;28;20090;-68
2024/03/12 08:26:56;;;;;;;38.42;18.35;;;;;;;6.63;52.77;101182.31;5029457;28;20028;-67
2024/03/12 08:29:22;;;;;;;34.85;18.27;;;;;;;6.58;53.05;101184.13;5023666;28;20039;-69
2024/03/12 08:31:48;;;;;;;37.20;19.65;;;;;;;6.50;53.03;101184.25;5032105;28;20036;-69
2024/03/12 08:34:15;;;;;;;34.40;18.42;;;;;;;6.38;53.80;101185.34;5018443;28;21050;-69
2024/03/12 08:36:46;;;;;;;36.08;19.30;;;;;;;6.49;53.36;101183.41;5032789;28;20035;-70
2024/03/12 08:39:11;;;;;;;44.42;20.20;;;;;;;6.39;53.60;101187.03;5021724;28;20136;-75
2024/03/12 08:41:41;;;;;;;37.30;18.73;;;;;;;6.75;53.74;101189.84;5031769;28;20036;-68
2024/03/12 08:44:08;;;;;;;37.80;19.92;;;;;;;6.33;54.45;101192.38;5019540;28;20043;-70
2024/03/12 08:46:34;;;;;;;35.55;19.48;;;;;;;6.26;54.35;101196.78;5030429;28;20036;-70
2024/03/12 08:49:00;;;;;;;39.17;19.67;;;;;;;6.02;54.84;101197.16;5028894;28;20033;-69
2024/03/12 08:51:33;;;;;;;47.67;24.13;;;;;;;6.09;55.17;101204.81;5023994;28;20029;-69
2024/03/12 08:54:01;;;;;;;38.42;18.67;;;;;;;5.80;56.46;101205.25;5032715;28;20044;-69
2024/03/12 08:56:29;;;;;;;42.85;20.75;;;;;;;5.88;56.59;101212.91;5029045;28;20029;-69
2024/03/12 08:58:57;;;;;;;44.17;20.88;;;;;;;5.69;57.33;101206.31;5030926;28;20037;-69
2024/03/12 09:01:23;;;;;;;48.50;20.65;;;;;;;6.03;56.43;101211.84;5026762;28;20878;-69
2024/03/12 09:03:48;;;;;;;46.63;21.95;;;;;;;6.01;56.51;101205.81;5031271;28;20066;-68
2024/03/12 09:06:16;;;;;;;43.53;20.50;;;;;;;5.93;56.70;101215.47;5026123;28;20453;-69
2024/03/12 09:08:42;;;;;;;51.17;22.75;;;;;;;6.65;55.84;101209.09;5035528;28;20040;-68
2024/03/12 09:11:09;;;;;;;45.20;21.42;;;;;;;6.84;54.55;101218.28;5031779;28;20028;-69
2024/03/12 09:13:35;;;;;;;48.05;21.40;;;;;;;6.99;54.08;101218.84;5032077;28;20044;-69
2024/03/12 09:16:01;;;;;;;43.08;19.85;;;;;;;6.85;54.10;101219.97;5034633;28;20083;-69
2024/03/12 09:18:27;;;;;;;46.13;20.27;;;;;;;6.59;54.33;101227.38;5026168;28;20139;-69
2024/03/12 09:20:54;;;;;;;40.03;20.65;;;;;;;6.25;55.44;101218.41;5038930;28;20025;-69
2024/03/12 09:23:20;;;;;;;44.72;22.13;;;;;;;6.57;55.13;101226.56;5026439;28;20473;-69
2024/03/12 09:25:47;;;;;;;44.05;18.95;;;;;;;6.93;53.92;101224.16;5036858;28;20090;-69
2024/03/12 09:28:16;;;;;;;41.95;20.52;;;;;;;6.74;54.35;101229.72;5024703;28;20037;-69
2024/03/12 09:30:42;;;;;;;42.90;21.17;;;;;;;7.00;54.51;101237.03;5035998;28;20029;-69
2024/03/12 09:33:08;;;;;;;45.42;22.27;;;;;;;6.96;54.28;101230.19;5010414;28;20502;-69
2024/03/12 09:35:33;;;;;;;46.65;21.40;;;;;;;7.01;53.80;101233.53;5033944;28;20074;-69
2024/03/12 09:37:59;;;;;;;47.85;21.45;;;;;;;6.80;53.96;101232.22;5028870;28;20036;-69
2024/03/12 09:40:25;;;;;;;47.42;23.25;;;;;;;6.89;54.07;101234.63;5027623;28;20032;-69
2024/03/12 09:42:52;;;;;;;51.28;23.00;;;;;;;6.72;54.38;101241.03;5035675;28;20036;-69
2024/03/12 09:45:20;;;;;;;50.15;22.00;;;;;;;6.53;54.85;101240.47;5026536;28;20921;-68
2024/03/12 09:47:45;;;;;;;52.08;23.90;;;;;;;6.98;54.29;101248.34;5022678;28;20066;-69
2024/03/12 09:50:16;;;;;;;43.42;22.02;;;;;;;7.00;54.40;101250.03;5027568;28;20159;-69
2024/03/12 09:52:42;;;;;;;54.10;24.83;;;;;;;6.64;55.01;101243.75;5033073;28;20151;-69
2024/03/12 09:55:10;;;;;;;49.72;22.60;;;;;;;6.82;55.26;101242.56;5025590;28;20036;-69
2024/03/12 09:57:37;;;;;;;55.75;24.58;;;;;;;6.84;54.76;101245.97;5037242;28;20071;-69
2024/03/12 10:00:06;;;;;;;46.08;22.60;;;;;;;6.77;54.53;101244.38;5030723;28;20032;-68
2024/03/12 10:02:34;;;;;;;61.50;23.13;;;;;;;6.32;55.58;101252.94;5033147;28;20032;-68
2024/03/12 10:05:01;;;;;;;54.33;25.33;;;;;;;6.39;56.52;101253.69;5028814;28;20051;-69
2024/03/12 10:07:26;;;;;;;60.85;23.08;;;;;;;6.40;56.01;101251.09;5027240;28;20045;-69
2024/03/12 10:09:52;;;;;;;55.67;24.35;;;;;;;6.48;56.18;101249.22;5034817;28;20068;-69
2024/03/12 10:12:20;;;;;;;49.88;23.17;;;;;;;6.75;55.71;101248.75;5023371;28;20509;-70
2024/03/12 10:14:46;;;;;;;53.72;23.00;;;;;;;6.69;55.52;101252.34;5033367;28;20040;-69
2024/03/12 10:17:16;;;;;;;55.58;23.55;;;;;;;6.53;55.70;101256.94;5024631;28;20316;-69
2024/03/12 10:19:45;;;;;;;57.72;24.83;;;;;;;5.68;58.51;101267.66;5033830;28;20024;-68
2024/03/12 10:22:17;;;;;;;54.83;24.90;;;;;;;5.85;58.35;101260.53;5023359;28;20032;-69
2024/03/12 10:24:43;;;;;;;48.95;25.15;;;;;;;6.01;57.71;101257.72;5033497;28;20043;-69
2024/03/12 10:27:09;;;;;;;56.00;25.67;;;;;;;6.18;57.65;101260.06;5027746;28;20033;-69
2024/03/12 10:29:36;;;;;;;59.67;26.35;;;;;;;6.11;57.92;101259.31;5029789;28;20036;-69
2024/03/12 10:32:18;;;;;;;60.00;26.77;;;;;;;6.39;57.08;101253.69;5027197;28;20127;-68
2024/03/12 10:34:44;;;;;;;54.30;26.08;;;;;;;5.72;59.12;101263.31;5034118;28;20040;-68
2024/03/12 10:37:28;;;;;;;66.70;27.88;;;;;;;6.12;58.08;101265.34;5024915;28;20538;-70
2024/03/12 10:39:56;;;;;;;63.22;27.40;;;;;;;6.30;57.35;101259.88;5038091;28;20035;-68
2024/03/12 10:42:22;;;;;;;63.92;27.52;;;;;;;6.24;56.95;101266.03;5027253;28;20056;-68
2024/03/12 10:44:48;;;;;;;69.18;27.25;;;;;;;6.08;57.73;101270.59;5036566;28;20498;-68
2024/03/12 10:47:14;;;;;;;69.70;27.00;;;;;;;6.60;56.50;101263.72;5022721;28;20047;-68
2024/03/12 10:49:47;;;;;;;60.88;29.27;;;;;;;6.32;56.84;101259.88;5030609;28;20037;-69
2024/03/12 10:52:17;;;;;;;72.05;27.15;;;;;;;6.34;56.71;101261.56;5026397;28;20573;-69
2024/03/12 10:54:44;;;;;;;66.85;27.77;;;;;;;6.76;56.23;101268.66;5032155;28;20056;-69
2024/03/12 10:57:10;;;;;;;72.35;29.23;;;;;;;6.41;57.33;101259.72;5028898;28;20495;-69
2024/03/12 10:59:37;;;;;;;68.68;28.48;;;;;;;6.03;58.16;101266.34;5029200;28;20016;-69
2024/03/12 11:02:06;;;;;;;64.75;25.48;;;;;;;6.57;57.28;101268.13;5028473;28;20039;-68
2024/03/12 11:04:35;;;;;;;67.93;28.45;;;;;;;6.78;57.00;101266.91;5046587;28;20833;-68
2024/03/12 11:07:03;;;;;;;63.10;28.90;;;;;;;6.58;57.06;101272.44;5027946;28;20675;-69
2024/03/12 11:09:32;;;;;;;63.47;27.67;;;;;;;6.15;57.49;101265.28;5025332;28;20086;-68
2024/03/12 11:11:59;;;;;;;63.28;27.67;;;;;;;5.79;58.90;101276.19;5028795;28;20025;-69
2024/03/12 11:14:28;;;;;;;70.72;28.05;;;;;;;6.03;58.05;101272.38;5028031;28;20035;-68
2024/03/12 11:16:54;;;;;;;60.47;27.48;;;;;;;5.90;59.21;101276.03;5030938;28;20558;-67
2024/03/12 11:19:24;;;;;;;69.25;26.13;;;;;;;5.21;60.49;101274.28;5026494;28;20518;-68
2024/03/12 11:22:05;;;;;;;75.50;30.45;;;;;;;6.10;58.28;101273.13;5028751;28;20067;-68
2024/03/12 11:24:44;;;;;;;75.88;27.92;;;;;;;6.32;58.34;101278.91;5026718;28;20044;-67
2024/03/12 11:27:25;;;;;;;81.13;30.40;;;;;;;5.89;58.78;101274.31;5025740;28;20719;-67
2024/03/12 11:29:59;;;;;;;77.40;30.35;;;;;;;6.23;58.32;101273.81;5031498;28;20680;-68